createdAt,value
2017-01-06T00:03:14.542Z,0
2017-01-06T00:13:27.750Z,0
2017-01-06T00:23:41.019Z,0
2017-01-06T00:33:54.310Z,0
2017-01-06T00:44:07.633Z,0
2017-01-06T00:54:20.960Z,0
2017-01-06T01:04:34.213Z,0
2017-01-06T01:14:47.448Z,0
2017-01-06T01:25:00.662Z,0
2017-01-06T01:35:13.875Z,0
2017-01-06T01:45:27.132Z,0
2017-01-06T01:55:40.431Z,0
2017-01-06T02:05:53.746Z,0
2017-01-06T02:16:07.032Z,0
2017-01-06T02:26:20.331Z,0
2017-01-06T02:36:33.710Z,0
2017-01-06T02:46:47.041Z,0
2017-01-06T02:57:00.475Z,0
2017-01-06T03:07:13.826Z,0
2017-01-06T03:17:27.274Z,0
2017-01-06T03:27:40.735Z,0
2017-01-06T03:37:54.184Z,0
2017-01-06T03:48:07.674Z,0
2017-01-06T03:58:21.251Z,0
2017-01-06T04:08:34.707Z,0
2017-01-06T04:18:48.174Z,0
2017-01-06T04:29:01.658Z,0
2017-01-06T04:39:15.133Z,0
2017-01-06T04:49:28.724Z,0
2017-01-06T04:59:42.326Z,0
2017-01-06T05:09:55.914Z,0
2017-01-06T05:20:09.516Z,0
2017-01-06T05:30:23.142Z,0
2017-01-06T05:40:36.683Z,0
2017-01-06T05:50:50.243Z,0
2017-01-06T06:01:03.791Z,0
2017-01-06T06:11:17.420Z,0
2017-01-06T06:21:31.002Z,0
2017-01-06T06:31:44.531Z,0
2017-01-06T06:41:58.136Z,0
2017-01-06T06:52:11.643Z,0
2017-01-06T07:02:25.117Z,0
2017-01-06T07:12:38.667Z,0
2017-01-06T07:22:52.156Z,5
2017-01-06T07:33:05.697Z,15
2017-01-06T07:43:19.166Z,35
2017-01-06T07:53:32.535Z,95
2017-01-06T08:03:45.679Z,175
2017-01-06T08:13:58.623Z,255
2017-01-06T08:24:11.249Z,340
2017-01-06T08:34:23.708Z,400
2017-01-06T08:44:35.994Z,170
2017-01-06T08:54:48.523Z,205
2017-01-06T09:05:01.325Z,585
2017-01-06T09:15:14.003Z,750
2017-01-06T09:25:26.453Z,855
2017-01-06T09:35:38.904Z,575
2017-01-06T09:45:51.403Z,655
2017-01-06T09:56:03.883Z,1060
2017-01-06T10:06:16.322Z,475
2017-01-06T10:16:28.741Z,1490
2017-01-06T10:26:40.756Z,1465
2017-01-06T10:36:52.452Z,1690
2017-01-06T10:47:03.912Z,950
2017-01-06T10:57:15.358Z,1520
2017-01-06T11:07:26.705Z,1455
2017-01-06T11:17:37.961Z,1445
2017-01-06T11:27:49.289Z,1160
2017-01-06T11:38:00.756Z,1185
2017-01-06T11:48:12.214Z,1515
2017-01-06T11:58:23.524Z,1085
2017-01-06T12:08:34.724Z,875
2017-01-06T12:18:46.038Z,540
2017-01-06T12:28:57.716Z,530
2017-01-06T12:39:09.553Z,1555
2017-01-06T12:49:21.090Z,1480
2017-01-06T12:59:32.318Z,1380
2017-01-06T13:09:43.399Z,1350
2017-01-06T13:19:54.370Z,1215
2017-01-06T13:30:05.333Z,1145
2017-01-06T13:40:16.326Z,1070
2017-01-06T13:50:27.365Z,950
2017-01-06T14:00:38.451Z,830
2017-01-06T14:10:49.590Z,840
2017-01-06T14:21:00.805Z,725
2017-01-06T14:31:11.931Z,575
2017-01-06T14:41:23.144Z,465
2017-01-06T14:51:34.447Z,335
2017-01-06T15:01:45.884Z,230
2017-01-06T15:11:57.535Z,130
2017-01-06T15:22:09.519Z,65
2017-01-06T15:32:21.736Z,30
2017-01-06T15:42:34.254Z,10
2017-01-06T15:52:46.842Z,0
2017-01-06T16:02:59.556Z,0
2017-01-06T16:13:12.365Z,0
2017-01-06T16:23:25.151Z,0
2017-01-06T16:33:37.965Z,0
2017-01-06T16:43:50.787Z,0
2017-01-06T16:54:03.699Z,0
2017-01-06T17:04:16.616Z,0
2017-01-06T17:14:29.532Z,0
2017-01-06T17:24:42.439Z,0
2017-01-06T17:34:55.320Z,0
2017-01-06T17:45:08.268Z,0
2017-01-06T17:55:21.176Z,0
2017-01-06T18:05:34.126Z,0
2017-01-06T18:15:47.055Z,0
2017-01-06T18:26:00.007Z,0
2017-01-06T18:36:12.880Z,0
2017-01-06T18:46:25.681Z,0
2017-01-06T18:56:38.526Z,0
2017-01-06T19:06:51.341Z,0
2017-01-06T19:17:04.230Z,0
2017-01-06T19:27:17.124Z,0
2017-01-06T19:37:30.039Z,0
2017-01-06T19:47:42.980Z,0
2017-01-06T19:57:55.936Z,0
2017-01-06T20:08:08.926Z,0
2017-01-06T20:18:21.927Z,0
2017-01-06T20:28:34.953Z,0
2017-01-06T20:38:47.986Z,0
2017-01-06T20:49:00.993Z,0
2017-01-06T20:59:14.049Z,0
2017-01-06T21:09:27.190Z,0
2017-01-06T21:19:40.350Z,0
2017-01-06T21:29:53.445Z,0
2017-01-06T21:40:06.523Z,0
2017-01-06T21:50:19.653Z,0
2017-01-06T22:00:32.761Z,0
2017-01-06T22:10:45.889Z,0
2017-01-06T22:20:59.032Z,0
2017-01-06T22:31:12.183Z,0
2017-01-06T22:41:25.315Z,0
2017-01-06T22:51:38.570Z,0
2017-01-06T23:01:51.661Z,0
2017-01-06T23:12:04.732Z,0
2017-01-06T23:22:17.825Z,0
2017-01-06T23:32:30.893Z,0
2017-01-06T23:42:44.022Z,0
2017-01-06T23:52:57.110Z,0
